Harbert, Michigan
Current Conditions -  °F | °C
As of 4:35 AM on Friday 31 Oct 2014 (Local Time) from KMGC Reporting Station
Light Rain Light Rain  
Wind Chill: 42°   Ceiling: 3300
Heat Index: 46°   Visibility: 10mi
Dew Point: 36°   Wind: 9mph
Humidity: 66%   Direction: 310°NW
Pressure: 29.98"   Gusts: 17mph
Location:  41.87°N, 86.63°W
Report Text: KMGC 310835Z AUTO 31008G15KT 10SM -RA SCT025 BKN033 OVC048 08/02 A2998 RMK AO2
Loading
Personal Weather Stations






























Interactive Weather Map New forecast layout! Learn more

10-Day Weather Forecast

Advertisements
Track Severe Weather on mobile